sensor_id;sensor_type;location;lat;lon;timestamp;P1;durP1;ratioP1;P2;durP2;ratioP2
31746;SDS011;18319;48.974;8.462;2022-08-19T00:01:28;12.63;;;11.35;;
31746;SDS011;18319;48.974;8.462;2022-08-19T00:03:55;12.98;;;11.77;;
31746;SDS011;18319;48.974;8.462;2022-08-19T00:06:22;13.23;;;11.88;;
31746;SDS011;18319;48.974;8.462;2022-08-19T00:08:49;14.20;;;12.73;;
31746;SDS011;18319;48.974;8.462;2022-08-19T00:11:16;11.20;;;10.20;;
31746;SDS011;18319;48.974;8.462;2022-08-19T00:13:44;12.98;;;11.70;;
31746;SDS011;18319;48.974;8.462;2022-08-19T00:16:11;14.30;;;12.80;;
31746;SDS011;18319;48.974;8.462;2022-08-19T00:18:39;13.38;;;12.10;;
31746;SDS011;18319;48.974;8.462;2022-08-19T00:23:34;13.35;;;11.98;;
31746;SDS011;18319;48.974;8.462;2022-08-19T00:26:01;13.80;;;12.23;;
31746;SDS011;18319;48.974;8.462;2022-08-19T00:28:28;13.02;;;11.82;;
31746;SDS011;18319;48.974;8.462;2022-08-19T00:30:56;13.20;;;12.00;;
31746;SDS011;18319;48.974;8.462;2022-08-19T00:33:22;14.70;;;13.00;;
31746;SDS011;18319;48.974;8.462;2022-08-19T00:35:51;13.88;;;12.48;;
31746;SDS011;18319;48.974;8.462;2022-08-19T00:38:17;14.38;;;12.98;;
31746;SDS011;18319;48.974;8.462;2022-08-19T00:40:47;15.27;;;13.27;;
31746;SDS011;18319;48.974;8.462;2022-08-19T00:43:18;13.77;;;12.32;;
31746;SDS011;18319;48.974;8.462;2022-08-19T00:45:46;12.93;;;11.73;;
31746;SDS011;18319;48.974;8.462;2022-08-19T00:48:13;13.82;;;12.50;;
31746;SDS011;18319;48.974;8.462;2022-08-19T00:50:41;13.07;;;11.82;;
31746;SDS011;18319;48.974;8.462;2022-08-19T00:53:12;13.38;;;12.13;;
31746;SDS011;18319;48.974;8.462;2022-08-19T00:55:42;12.60;;;11.52;;
31746;SDS011;18319;48.974;8.462;2022-08-19T00:58:13;12.63;;;11.43;;
31746;SDS011;18319;48.974;8.462;2022-08-19T01:00:43;12.82;;;11.73;;
31746;SDS011;18319;48.974;8.462;2022-08-19T01:03:11;12.57;;;11.50;;
31746;SDS011;18319;48.974;8.462;2022-08-19T01:05:39;13.60;;;11.98;;
31746;SDS011;18319;48.974;8.462;2022-08-19T01:08:08;13.05;;;12.02;;
31746;SDS011;18319;48.974;8.462;2022-08-19T01:10:39;13.85;;;12.43;;
31746;SDS011;18319;48.974;8.462;2022-08-19T01:13:08;14.23;;;12.90;;
31746;SDS011;18319;48.974;8.462;2022-08-19T01:15:38;13.90;;;12.48;;
31746;SDS011;18319;48.974;8.462;2022-08-19T01:18:12;15.20;;;13.73;;
31746;SDS011;18319;48.974;8.462;2022-08-19T01:20:41;14.02;;;12.63;;
31746;SDS011;18319;48.974;8.462;2022-08-19T01:23:09;15.90;;;14.20;;
31746;SDS011;18319;48.974;8.462;2022-08-19T01:25:39;13.73;;;12.52;;
31746;SDS011;18319;48.974;8.462;2022-08-19T01:28:16;13.85;;;12.55;;
31746;SDS011;18319;48.974;8.462;2022-08-19T01:30:44;13.50;;;12.38;;
31746;SDS011;18319;48.974;8.462;2022-08-19T01:33:12;13.90;;;12.25;;
31746;SDS011;18319;48.974;8.462;2022-08-19T01:35:42;15.35;;;13.63;;
31746;SDS011;18319;48.974;8.462;2022-08-19T01:38:19;13.80;;;12.60;;
31746;SDS011;18319;48.974;8.462;2022-08-19T01:40:48;14.68;;;13.23;;
31746;SDS011;18319;48.974;8.462;2022-08-19T01:43:15;15.23;;;13.55;;
31746;SDS011;18319;48.974;8.462;2022-08-19T01:45:44;13.95;;;12.63;;
31746;SDS011;18319;48.974;8.462;2022-08-19T01:48:11;13.35;;;12.18;;
31746;SDS011;18319;48.974;8.462;2022-08-19T01:50:39;14.85;;;13.35;;
31746;SDS011;18319;48.974;8.462;2022-08-19T01:53:07;13.15;;;11.90;;
31746;SDS011;18319;48.974;8.462;2022-08-19T01:55:38;13.77;;;12.48;;
31746;SDS011;18319;48.974;8.462;2022-08-19T01:58:08;15.07;;;13.77;;
31746;SDS011;18319;48.974;8.462;2022-08-19T02:00:39;15.35;;;14.05;;
31746;SDS011;18319;48.974;8.462;2022-08-19T02:03:06;15.00;;;13.70;;
31746;SDS011;18319;48.974;8.462;2022-08-19T02:05:35;13.93;;;11.93;;
31746;SDS011;18319;48.974;8.462;2022-08-19T02:08:02;13.77;;;12.65;;
31746;SDS011;18319;48.974;8.462;2022-08-19T02:10:30;14.45;;;13.15;;
31746;SDS011;18319;48.974;8.462;2022-08-19T02:12:57;13.50;;;12.30;;
31746;SDS011;18319;48.974;8.462;2022-08-19T02:15:24;13.20;;;12.10;;
31746;SDS011;18319;48.974;8.462;2022-08-19T02:17:51;16.30;;;14.70;;
31746;SDS011;18319;48.974;8.462;2022-08-19T02:20:18;16.02;;;14.52;;
31746;SDS011;18319;48.974;8.462;2022-08-19T02:22:45;15.38;;;13.80;;
31746;SDS011;18319;48.974;8.462;2022-08-19T02:25:12;15.13;;;13.73;;
31746;SDS011;18319;48.974;8.462;2022-08-19T02:27:41;15.13;;;13.73;;
31746;SDS011;18319;48.974;8.462;2022-08-19T02:30:10;14.57;;;13.30;;
31746;SDS011;18319;48.974;8.462;2022-08-19T02:32:40;14.40;;;13.02;;
31746;SDS011;18319;48.974;8.462;2022-08-19T02:35:07;14.40;;;12.90;;
31746;SDS011;18319;48.974;8.462;2022-08-19T02:37:35;14.38;;;13.05;;
31746;SDS011;18319;48.974;8.462;2022-08-19T02:40:19;13.48;;;12.07;;
31746;SDS011;18319;48.974;8.462;2022-08-19T02:42:47;13.60;;;12.40;;
31746;SDS011;18319;48.974;8.462;2022-08-19T02:45:14;15.45;;;13.90;;
31746;SDS011;18319;48.974;8.462;2022-08-19T02:47:41;14.77;;;13.32;;
31746;SDS011;18319;48.974;8.462;2022-08-19T02:50:08;15.38;;;13.98;;
31746;SDS011;18319;48.974;8.462;2022-08-19T02:52:35;15.35;;;13.85;;
31746;SDS011;18319;48.974;8.462;2022-08-19T02:55:03;17.75;;;13.68;;
31746;SDS011;18319;48.974;8.462;2022-08-19T02:57:31;14.98;;;13.48;;
31746;SDS011;18319;48.974;8.462;2022-08-19T03:00:00;14.40;;;13.07;;
31746;SDS011;18319;48.974;8.462;2022-08-19T03:02:29;16.25;;;14.68;;
31746;SDS011;18319;48.974;8.462;2022-08-19T03:04:56;16.30;;;14.70;;
31746;SDS011;18319;48.974;8.462;2022-08-19T03:07:23;17.00;;;14.63;;
31746;SDS011;18319;48.974;8.462;2022-08-19T03:09:50;15.23;;;13.85;;
31746;SDS011;18319;48.974;8.462;2022-08-19T03:12:16;14.80;;;13.40;;
31746;SDS011;18319;48.974;8.462;2022-08-19T03:14:43;15.30;;;13.80;;
31746;SDS011;18319;48.974;8.462;2022-08-19T03:17:12;15.88;;;13.07;;
31746;SDS011;18319;48.974;8.462;2022-08-19T03:19:39;15.75;;;14.20;;
31746;SDS011;18319;48.974;8.462;2022-08-19T03:22:08;15.40;;;13.95;;
31746;SDS011;18319;48.974;8.462;2022-08-19T03:24:35;17.08;;;15.27;;
31746;SDS011;18319;48.974;8.462;2022-08-19T03:27:01;16.95;;;15.35;;
31746;SDS011;18319;48.974;8.462;2022-08-19T03:29:30;16.60;;;15.10;;
31746;SDS011;18319;48.974;8.462;2022-08-19T03:31:58;16.17;;;14.77;;
31746;SDS011;18319;48.974;8.462;2022-08-19T03:34:28;16.45;;;14.88;;
31746;SDS011;18319;48.974;8.462;2022-08-19T03:36:57;16.70;;;15.02;;
31746;SDS011;18319;48.974;8.462;2022-08-19T03:39:26;17.30;;;15.73;;
31746;SDS011;18319;48.974;8.462;2022-08-19T03:41:53;16.88;;;15.27;;
31746;SDS011;18319;48.974;8.462;2022-08-19T03:44:22;16.80;;;15.05;;
31746;SDS011;18319;48.974;8.462;2022-08-19T03:46:51;16.35;;;14.85;;
31746;SDS011;18319;48.974;8.462;2022-08-19T03:49:21;16.35;;;14.85;;
31746;SDS011;18319;48.974;8.462;2022-08-19T03:51:51;15.07;;;13.60;;
31746;SDS011;18319;48.974;8.462;2022-08-19T03:54:19;16.08;;;14.55;;
31746;SDS011;18319;48.974;8.462;2022-08-19T03:56:48;15.55;;;13.98;;
31746;SDS011;18319;48.974;8.462;2022-08-19T03:59:17;15.60;;;14.07;;
31746;SDS011;18319;48.974;8.462;2022-08-19T04:01:51;16.20;;;14.70;;
31746;SDS011;18319;48.974;8.462;2022-08-19T04:04:18;15.07;;;13.57;;
31746;SDS011;18319;48.974;8.462;2022-08-19T04:06:45;17.45;;;15.73;;
31746;SDS011;18319;48.974;8.462;2022-08-19T04:09:13;15.57;;;14.00;;
31746;SDS011;18319;48.974;8.462;2022-08-19T04:11:42;16.60;;;15.00;;
31746;SDS011;18319;48.974;8.462;2022-08-19T04:14:13;15.85;;;14.35;;
31746;SDS011;18319;48.974;8.462;2022-08-19T04:16:41;16.48;;;14.60;;
31746;SDS011;18319;48.974;8.462;2022-08-19T04:19:09;17.27;;;15.48;;
31746;SDS011;18319;48.974;8.462;2022-08-19T04:21:36;16.02;;;14.40;;
31746;SDS011;18319;48.974;8.462;2022-08-19T04:24:03;15.55;;;13.95;;
31746;SDS011;18319;48.974;8.462;2022-08-19T04:26:34;15.73;;;14.23;;
31746;SDS011;18319;48.974;8.462;2022-08-19T04:29:03;19.42;;;16.15;;
31746;SDS011;18319;48.974;8.462;2022-08-19T04:31:32;16.98;;;15.27;;
31746;SDS011;18319;48.974;8.462;2022-08-19T04:34:01;17.67;;;15.80;;
31746;SDS011;18319;48.974;8.462;2022-08-19T04:36:30;20.17;;;18.02;;
31746;SDS011;18319;48.974;8.462;2022-08-19T04:38:59;19.25;;;17.25;;
31746;SDS011;18319;48.974;8.462;2022-08-19T04:41:28;19.67;;;17.60;;
31746;SDS011;18319;48.974;8.462;2022-08-19T04:44:14;22.20;;;18.95;;
31746;SDS011;18319;48.974;8.462;2022-08-19T04:46:43;20.33;;;18.15;;
31746;SDS011;18319;48.974;8.462;2022-08-19T04:49:10;21.00;;;18.55;;
31746;SDS011;18319;48.974;8.462;2022-08-19T04:51:39;21.02;;;18.48;;
31746;SDS011;18319;48.974;8.462;2022-08-19T04:54:07;19.33;;;17.08;;
31746;SDS011;18319;48.974;8.462;2022-08-19T04:56:34;18.65;;;16.67;;
31746;SDS011;18319;48.974;8.462;2022-08-19T04:59:02;18.92;;;16.40;;
31746;SDS011;18319;48.974;8.462;2022-08-19T05:01:31;19.67;;;17.63;;
31746;SDS011;18319;48.974;8.462;2022-08-19T05:04:00;20.00;;;17.63;;
31746;SDS011;18319;48.974;8.462;2022-08-19T05:06:29;20.95;;;18.75;;
31746;SDS011;18319;48.974;8.462;2022-08-19T05:08:59;20.92;;;18.50;;
31746;SDS011;18319;48.974;8.462;2022-08-19T05:11:26;20.20;;;17.52;;
31746;SDS011;18319;48.974;8.462;2022-08-19T05:13:55;20.48;;;18.27;;
31746;SDS011;18319;48.974;8.462;2022-08-19T05:16:23;22.90;;;18.50;;
31746;SDS011;18319;48.974;8.462;2022-08-19T05:18:53;20.58;;;18.38;;
31746;SDS011;18319;48.974;8.462;2022-08-19T05:21:39;23.85;;;17.77;;
31746;SDS011;18319;48.974;8.462;2022-08-19T05:24:24;19.27;;;17.33;;
31746;SDS011;18319;48.974;8.462;2022-08-19T05:26:53;21.20;;;18.77;;
31746;SDS011;18319;48.974;8.462;2022-08-19T05:29:22;20.50;;;17.75;;
31746;SDS011;18319;48.974;8.462;2022-08-19T05:31:50;20.33;;;16.95;;
31746;SDS011;18319;48.974;8.462;2022-08-19T05:34:20;19.80;;;17.20;;
31746;SDS011;18319;48.974;8.462;2022-08-19T05:36:50;19.55;;;17.65;;
31746;SDS011;18319;48.974;8.462;2022-08-19T05:39:22;18.25;;;16.35;;
31746;SDS011;18319;48.974;8.462;2022-08-19T05:41:50;18.63;;;16.52;;
31746;SDS011;18319;48.974;8.462;2022-08-19T05:44:22;19.63;;;17.52;;
31746;SDS011;18319;48.974;8.462;2022-08-19T05:46:49;19.40;;;16.83;;
31746;SDS011;18319;48.974;8.462;2022-08-19T05:49:19;20.00;;;17.95;;
31746;SDS011;18319;48.974;8.462;2022-08-19T05:51:48;19.52;;;16.73;;
31746;SDS011;18319;48.974;8.462;2022-08-19T05:54:15;20.77;;;16.92;;
31746;SDS011;18319;48.974;8.462;2022-08-19T05:56:42;20.17;;;16.88;;
31746;SDS011;18319;48.974;8.462;2022-08-19T05:59:12;19.60;;;17.52;;
31746;SDS011;18319;48.974;8.462;2022-08-19T06:01:42;20.08;;;17.92;;
31746;SDS011;18319;48.974;8.462;2022-08-19T06:04:10;19.55;;;17.45;;
31746;SDS011;18319;48.974;8.462;2022-08-19T06:06:39;18.77;;;16.77;;
31746;SDS011;18319;48.974;8.462;2022-08-19T06:09:07;20.80;;;17.33;;
31746;SDS011;18319;48.974;8.462;2022-08-19T06:11:35;17.40;;;15.60;;
31746;SDS011;18319;48.974;8.462;2022-08-19T06:14:05;17.38;;;15.57;;
31746;SDS011;18319;48.974;8.462;2022-08-19T06:16:34;18.60;;;16.48;;
31746;SDS011;18319;48.974;8.462;2022-08-19T06:19:02;18.17;;;16.38;;
31746;SDS011;18319;48.974;8.462;2022-08-19T06:21:32;19.50;;;15.57;;
31746;SDS011;18319;48.974;8.462;2022-08-19T06:24:01;18.52;;;16.73;;
31746;SDS011;18319;48.974;8.462;2022-08-19T06:26:28;18.08;;;15.18;;
31746;SDS011;18319;48.974;8.462;2022-08-19T06:28:55;15.77;;;14.20;;
31746;SDS011;18319;48.974;8.462;2022-08-19T06:31:24;18.13;;;16.17;;
31746;SDS011;18319;48.974;8.462;2022-08-19T06:33:52;17.77;;;16.00;;
31746;SDS011;18319;48.974;8.462;2022-08-19T06:36:19;20.08;;;17.80;;
31746;SDS011;18319;48.974;8.462;2022-08-19T06:38:56;20.88;;;17.02;;
31746;SDS011;18319;48.974;8.462;2022-08-19T06:41:25;16.35;;;14.75;;
31746;SDS011;18319;48.974;8.462;2022-08-19T06:43:52;17.08;;;15.27;;
31746;SDS011;18319;48.974;8.462;2022-08-19T06:46:19;17.25;;;14.95;;
31746;SDS011;18319;48.974;8.462;2022-08-19T06:48:47;16.58;;;14.88;;
31746;SDS011;18319;48.974;8.462;2022-08-19T06:51:15;18.90;;;15.80;;
31746;SDS011;18319;48.974;8.462;2022-08-19T06:53:43;15.65;;;14.10;;
31746;SDS011;18319;48.974;8.462;2022-08-19T06:56:12;18.35;;;14.75;;
31746;SDS011;18319;48.974;8.462;2022-08-19T06:58:40;17.23;;;14.10;;
31746;SDS011;18319;48.974;8.462;2022-08-19T07:01:07;14.55;;;13.25;;
31746;SDS011;18319;48.974;8.462;2022-08-19T07:03:35;16.48;;;14.93;;
31746;SDS011;18319;48.974;8.462;2022-08-19T07:06:03;16.67;;;13.77;;
31746;SDS011;18319;48.974;8.462;2022-08-19T07:08:32;17.70;;;15.15;;
31746;SDS011;18319;48.974;8.462;2022-08-19T07:11:01;16.40;;;14.80;;
31746;SDS011;18319;48.974;8.462;2022-08-19T07:13:28;15.48;;;13.90;;
31746;SDS011;18319;48.974;8.462;2022-08-19T07:16:03;15.18;;;13.68;;
31746;SDS011;18319;48.974;8.462;2022-08-19T07:18:31;13.35;;;12.15;;
31746;SDS011;18319;48.974;8.462;2022-08-19T07:21:02;14.07;;;12.80;;
31746;SDS011;18319;48.974;8.462;2022-08-19T07:23:30;14.43;;;13.15;;
31746;SDS011;18319;48.974;8.462;2022-08-19T07:25:57;15.20;;;13.63;;
31746;SDS011;18319;48.974;8.462;2022-08-19T07:28:24;14.80;;;13.35;;
31746;SDS011;18319;48.974;8.462;2022-08-19T07:30:51;15.32;;;13.93;;
31746;SDS011;18319;48.974;8.462;2022-08-19T07:33:19;16.30;;;14.68;;
31746;SDS011;18319;48.974;8.462;2022-08-19T07:35:46;14.25;;;13.05;;
31746;SDS011;18319;48.974;8.462;2022-08-19T07:38:14;14.55;;;13.25;;
31746;SDS011;18319;48.974;8.462;2022-08-19T07:40:41;15.77;;;12.52;;
31746;SDS011;18319;48.974;8.462;2022-08-19T07:43:08;14.35;;;13.15;;
31746;SDS011;18319;48.974;8.462;2022-08-19T07:45:35;13.27;;;12.05;;
31746;SDS011;18319;48.974;8.462;2022-08-19T07:48:02;13.75;;;12.55;;
31746;SDS011;18319;48.974;8.462;2022-08-19T07:50:32;13.25;;;12.05;;
31746;SDS011;18319;48.974;8.462;2022-08-19T07:52:59;13.70;;;12.40;;
31746;SDS011;18319;48.974;8.462;2022-08-19T07:55:25;14.57;;;12.98;;
31746;SDS011;18319;48.974;8.462;2022-08-19T07:57:52;12.82;;;11.50;;
31746;SDS011;18319;48.974;8.462;2022-08-19T08:00:20;12.35;;;11.30;;
31746;SDS011;18319;48.974;8.462;2022-08-19T08:02:47;13.82;;;12.63;;
31746;SDS011;18319;48.974;8.462;2022-08-19T08:05:13;14.35;;;12.77;;
31746;SDS011;18319;48.974;8.462;2022-08-19T08:07:58;11.68;;;10.68;;
31746;SDS011;18319;48.974;8.462;2022-08-19T08:10:43;11.48;;;10.63;;
31746;SDS011;18319;48.974;8.462;2022-08-19T08:13:10;12.48;;;11.38;;
31746;SDS011;18319;48.974;8.462;2022-08-19T08:15:37;12.95;;;11.95;;
31746;SDS011;18319;48.974;8.462;2022-08-19T08:18:04;10.60;;;9.80;;
31746;SDS011;18319;48.974;8.462;2022-08-19T08:20:32;11.98;;;10.80;;
31746;SDS011;18319;48.974;8.462;2022-08-19T08:23:00;12.15;;;11.13;;
31746;SDS011;18319;48.974;8.462;2022-08-19T08:25:44;12.35;;;11.30;;
31746;SDS011;18319;48.974;8.462;2022-08-19T08:28:12;12.18;;;11.15;;
31746;SDS011;18319;48.974;8.462;2022-08-19T08:30:39;13.07;;;11.88;;
31746;SDS011;18319;48.974;8.462;2022-08-19T08:33:07;10.55;;;9.55;;
31746;SDS011;18319;48.974;8.462;2022-08-19T08:35:34;12.38;;;11.25;;
31746;SDS011;18319;48.974;8.462;2022-08-19T08:38:03;10.85;;;9.85;;
31746;SDS011;18319;48.974;8.462;2022-08-19T08:40:32;10.52;;;9.55;;
31746;SDS011;18319;48.974;8.462;2022-08-19T08:43:06;13.73;;;9.45;;
31746;SDS011;18319;48.974;8.462;2022-08-19T08:45:36;9.90;;;9.10;;
31746;SDS011;18319;48.974;8.462;2022-08-19T08:48:10;9.30;;;8.38;;
31746;SDS011;18319;48.974;8.462;2022-08-19T08:50:43;7.72;;;7.13;;
31746;SDS011;18319;48.974;8.462;2022-08-19T08:53:15;9.68;;;8.73;;
31746;SDS011;18319;48.974;8.462;2022-08-19T08:55:43;7.32;;;6.82;;
31746;SDS011;18319;48.974;8.462;2022-08-19T08:58:12;8.07;;;7.28;;
31746;SDS011;18319;48.974;8.462;2022-08-19T09:00:45;7.47;;;6.97;;
31746;SDS011;18319;48.974;8.462;2022-08-19T09:03:16;7.43;;;6.93;;
31746;SDS011;18319;48.974;8.462;2022-08-19T09:05:48;6.82;;;5.90;;
31746;SDS011;18319;48.974;8.462;2022-08-19T09:08:25;7.95;;;6.07;;
31746;SDS011;18319;48.974;8.462;2022-08-19T09:11:06;6.75;;;6.30;;
31746;SDS011;18319;48.974;8.462;2022-08-19T09:13:38;6.15;;;5.43;;
31746;SDS011;18319;48.974;8.462;2022-08-19T09:16:16;7.32;;;6.63;;
31746;SDS011;18319;48.974;8.462;2022-08-19T09:18:46;6.60;;;6.15;;
31746;SDS011;18319;48.974;8.462;2022-08-19T09:21:18;5.88;;;5.45;;
31746;SDS011;18319;48.974;8.462;2022-08-19T09:23:46;6.43;;;5.53;;
31746;SDS011;18319;48.974;8.462;2022-08-19T09:26:14;5.57;;;5.18;;
31746;SDS011;18319;48.974;8.462;2022-08-19T09:28:42;5.32;;;5.03;;
31746;SDS011;18319;48.974;8.462;2022-08-19T09:31:11;5.40;;;4.93;;
31746;SDS011;18319;48.974;8.462;2022-08-19T09:33:38;4.82;;;4.40;;
31746;SDS011;18319;48.974;8.462;2022-08-19T09:36:07;7.65;;;4.88;;
31746;SDS011;18319;48.974;8.462;2022-08-19T09:38:36;7.28;;;4.63;;
31746;SDS011;18319;48.974;8.462;2022-08-19T09:41:06;5.00;;;4.60;;
31746;SDS011;18319;48.974;8.462;2022-08-19T09:43:38;5.35;;;4.85;;
31746;SDS011;18319;48.974;8.462;2022-08-19T09:46:06;5.00;;;4.60;;
31746;SDS011;18319;48.974;8.462;2022-08-19T09:48:34;4.70;;;4.40;;
31746;SDS011;18319;48.974;8.462;2022-08-19T09:51:02;5.30;;;4.90;;
31746;SDS011;18319;48.974;8.462;2022-08-19T09:53:31;5.28;;;4.85;;
31746;SDS011;18319;48.974;8.462;2022-08-19T09:55:59;6.15;;;5.65;;
31746;SDS011;18319;48.974;8.462;2022-08-19T09:58:27;6.55;;;5.88;;
31746;SDS011;18319;48.974;8.462;2022-08-19T10:00:55;5.30;;;5.00;;
31746;SDS011;18319;48.974;8.462;2022-08-19T10:03:23;4.95;;;4.32;;
31746;SDS011;18319;48.974;8.462;2022-08-19T10:05:50;4.63;;;4.40;;
31746;SDS011;18319;48.974;8.462;2022-08-19T10:08:19;5.18;;;3.92;;
31746;SDS011;18319;48.974;8.462;2022-08-19T10:10:48;5.03;;;4.63;;
31746;SDS011;18319;48.974;8.462;2022-08-19T10:13:17;4.75;;;3.55;;
31746;SDS011;18319;48.974;8.462;2022-08-19T10:15:53;4.15;;;3.83;;
31746;SDS011;18319;48.974;8.462;2022-08-19T10:18:25;4.15;;;3.65;;
31746;SDS011;18319;48.974;8.462;2022-08-19T10:20:52;4.20;;;3.90;;
31746;SDS011;18319;48.974;8.462;2022-08-19T10:23:28;4.38;;;4.07;;
31746;SDS011;18319;48.974;8.462;2022-08-19T10:25:59;4.57;;;4.28;;
31746;SDS011;18319;48.974;8.462;2022-08-19T10:28:26;4.95;;;4.57;;
31746;SDS011;18319;48.974;8.462;2022-08-19T10:30:54;4.72;;;4.43;;
31746;SDS011;18319;48.974;8.462;2022-08-19T10:33:21;5.13;;;4.72;;
31746;SDS011;18319;48.974;8.462;2022-08-19T10:35:49;4.53;;;4.30;;
31746;SDS011;18319;48.974;8.462;2022-08-19T10:38:25;4.80;;;4.50;;
31746;SDS011;18319;48.974;8.462;2022-08-19T10:40:52;4.90;;;4.40;;
31746;SDS011;18319;48.974;8.462;2022-08-19T10:43:18;4.63;;;4.07;;
31746;SDS011;18319;48.974;8.462;2022-08-19T10:45:48;4.35;;;3.95;;
31746;SDS011;18319;48.974;8.462;2022-08-19T10:48:20;5.13;;;4.68;;
31746;SDS011;18319;48.974;8.462;2022-08-19T10:50:47;4.60;;;4.40;;
31746;SDS011;18319;48.974;8.462;2022-08-19T10:53:31;4.05;;;3.85;;
31746;SDS011;18319;48.974;8.462;2022-08-19T10:55:57;4.88;;;4.20;;
31746;SDS011;18319;48.974;8.462;2022-08-19T10:58:42;4.97;;;4.68;;
31746;SDS011;18319;48.974;8.462;2022-08-19T11:01:09;6.95;;;4.13;;
31746;SDS011;18319;48.974;8.462;2022-08-19T11:03:38;4.72;;;4.32;;
31746;SDS011;18319;48.974;8.462;2022-08-19T11:06:06;5.03;;;4.63;;
31746;SDS011;18319;48.974;8.462;2022-08-19T11:08:35;5.30;;;4.80;;
31746;SDS011;18319;48.974;8.462;2022-08-19T11:11:03;4.40;;;4.10;;
31746;SDS011;18319;48.974;8.462;2022-08-19T11:13:33;5.35;;;5.05;;
31746;SDS011;18319;48.974;8.462;2022-08-19T11:16:03;4.97;;;4.68;;
31746;SDS011;18319;48.974;8.462;2022-08-19T11:18:34;4.47;;;4.20;;
31746;SDS011;18319;48.974;8.462;2022-08-19T11:21:07;5.13;;;4.80;;
31746;SDS011;18319;48.974;8.462;2022-08-19T11:23:35;5.05;;;4.80;;
31746;SDS011;18319;48.974;8.462;2022-08-19T11:26:02;4.93;;;4.63;;
31746;SDS011;18319;48.974;8.462;2022-08-19T11:28:29;5.38;;;4.70;;
31746;SDS011;18319;48.974;8.462;2022-08-19T11:30:56;6.25;;;4.53;;
31746;SDS011;18319;48.974;8.462;2022-08-19T11:33:22;5.43;;;4.97;;
31746;SDS011;18319;48.974;8.462;2022-08-19T11:35:51;5.85;;;5.28;;
31746;SDS011;18319;48.974;8.462;2022-08-19T11:38:20;4.72;;;4.40;;
31746;SDS011;18319;48.974;8.462;2022-08-19T11:40:53;5.43;;;5.13;;
31746;SDS011;18319;48.974;8.462;2022-08-19T11:43:21;5.82;;;5.43;;
31746;SDS011;18319;48.974;8.462;2022-08-19T11:45:49;5.85;;;5.35;;
31746;SDS011;18319;48.974;8.462;2022-08-19T11:48:18;5.53;;;5.05;;
31746;SDS011;18319;48.974;8.462;2022-08-19T11:50:47;5.43;;;5.03;;
31746;SDS011;18319;48.974;8.462;2022-08-19T11:53:14;5.90;;;5.45;;
31746;SDS011;18319;48.974;8.462;2022-08-19T11:55:42;6.82;;;5.60;;
31746;SDS011;18319;48.974;8.462;2022-08-19T11:58:11;5.60;;;5.18;;
31746;SDS011;18319;48.974;8.462;2022-08-19T12:00:38;5.82;;;5.32;;
31746;SDS011;18319;48.974;8.462;2022-08-19T12:03:05;5.15;;;4.85;;
31746;SDS011;18319;48.974;8.462;2022-08-19T12:05:33;6.00;;;5.55;;
31746;SDS011;18319;48.974;8.462;2022-08-19T12:08:02;5.75;;;5.13;;
31746;SDS011;18319;48.974;8.462;2022-08-19T12:10:29;5.28;;;4.97;;
31746;SDS011;18319;48.974;8.462;2022-08-19T12:12:58;5.80;;;5.40;;
31746;SDS011;18319;48.974;8.462;2022-08-19T12:15:25;5.18;;;4.88;;
31746;SDS011;18319;48.974;8.462;2022-08-19T12:17:54;5.50;;;5.20;;
31746;SDS011;18319;48.974;8.462;2022-08-19T12:20:23;6.13;;;5.60;;
31746;SDS011;18319;48.974;8.462;2022-08-19T12:22:51;5.43;;;5.13;;
31746;SDS011;18319;48.974;8.462;2022-08-19T12:25:20;5.57;;;5.28;;
31746;SDS011;18319;48.974;8.462;2022-08-19T12:27:47;5.63;;;5.15;;
31746;SDS011;18319;48.974;8.462;2022-08-19T12:30:16;5.80;;;5.50;;
31746;SDS011;18319;48.974;8.462;2022-08-19T12:32:42;5.00;;;4.70;;
31746;SDS011;18319;48.974;8.462;2022-08-19T12:35:09;5.40;;;5.10;;
31746;SDS011;18319;48.974;8.462;2022-08-19T12:37:40;5.55;;;5.15;;
31746;SDS011;18319;48.974;8.462;2022-08-19T12:40:09;6.07;;;5.68;;
31746;SDS011;18319;48.974;8.462;2022-08-19T12:42:37;6.20;;;5.80;;
31746;SDS011;18319;48.974;8.462;2022-08-19T12:45:06;5.50;;;5.20;;
31746;SDS011;18319;48.974;8.462;2022-08-19T12:47:35;6.40;;;5.88;;
31746;SDS011;18319;48.974;8.462;2022-08-19T12:50:03;5.68;;;5.38;;
31746;SDS011;18319;48.974;8.462;2022-08-19T12:52:33;5.95;;;5.55;;
31746;SDS011;18319;48.974;8.462;2022-08-19T12:55:02;6.03;;;5.72;;
31746;SDS011;18319;48.974;8.462;2022-08-19T12:57:30;6.88;;;6.47;;
31746;SDS011;18319;48.974;8.462;2022-08-19T12:59:58;5.35;;;5.05;;
31746;SDS011;18319;48.974;8.462;2022-08-19T13:02:26;6.40;;;6.00;;
31746;SDS011;18319;48.974;8.462;2022-08-19T13:04:54;5.07;;;4.88;;
31746;SDS011;18319;48.974;8.462;2022-08-19T13:07:21;6.03;;;5.50;;
31746;SDS011;18319;48.974;8.462;2022-08-19T13:09:50;5.55;;;5.15;;
31746;SDS011;18319;48.974;8.462;2022-08-19T13:12:17;6.28;;;5.80;;
31746;SDS011;18319;48.974;8.462;2022-08-19T13:14:45;5.55;;;5.18;;
31746;SDS011;18319;48.974;8.462;2022-08-19T13:17:15;5.68;;;5.30;;
31746;SDS011;18319;48.974;8.462;2022-08-19T13:19:42;5.28;;;4.88;;
31746;SDS011;18319;48.974;8.462;2022-08-19T13:22:11;5.43;;;5.13;;
31746;SDS011;18319;48.974;8.462;2022-08-19T13:24:38;5.32;;;5.03;;
31746;SDS011;18319;48.974;8.462;2022-08-19T13:27:04;5.07;;;4.78;;
31746;SDS011;18319;48.974;8.462;2022-08-19T13:29:31;5.05;;;4.78;;
31746;SDS011;18319;48.974;8.462;2022-08-19T13:32:16;4.88;;;4.57;;
31746;SDS011;18319;48.974;8.462;2022-08-19T13:35:00;4.90;;;4.68;;
31746;SDS011;18319;48.974;8.462;2022-08-19T13:37:28;5.13;;;4.82;;
31746;SDS011;18319;48.974;8.462;2022-08-19T13:40:07;4.78;;;4.53;;
31746;SDS011;18319;48.974;8.462;2022-08-19T13:42:36;4.53;;;4.13;;
31746;SDS011;18319;48.974;8.462;2022-08-19T13:45:04;4.50;;;4.30;;
31746;SDS011;18319;48.974;8.462;2022-08-19T13:47:31;4.45;;;4.00;;
31746;SDS011;18319;48.974;8.462;2022-08-19T13:49:59;4.25;;;3.97;;
31746;SDS011;18319;48.974;8.462;2022-08-19T13:52:26;4.35;;;3.97;;
31746;SDS011;18319;48.974;8.462;2022-08-19T13:54:58;4.07;;;3.78;;
31746;SDS011;18319;48.974;8.462;2022-08-19T13:57:25;3.70;;;3.50;;
31746;SDS011;18319;48.974;8.462;2022-08-19T13:59:52;4.05;;;3.78;;
31746;SDS011;18319;48.974;8.462;2022-08-19T14:02:20;4.10;;;3.47;;
31746;SDS011;18319;48.974;8.462;2022-08-19T14:04:46;3.15;;;3.05;;
31746;SDS011;18319;48.974;8.462;2022-08-19T14:07:13;3.63;;;3.42;;
31746;SDS011;18319;48.974;8.462;2022-08-19T14:09:40;2.97;;;2.88;;
31746;SDS011;18319;48.974;8.462;2022-08-19T14:12:08;2.70;;;2.60;;
31746;SDS011;18319;48.974;8.462;2022-08-19T14:14:36;2.85;;;2.65;;
31746;SDS011;18319;48.974;8.462;2022-08-19T14:17:05;3.03;;;2.83;;
31746;SDS011;18319;48.974;8.462;2022-08-19T14:19:32;2.83;;;2.63;;
31746;SDS011;18319;48.974;8.462;2022-08-19T14:21:59;2.75;;;2.65;;
31746;SDS011;18319;48.974;8.462;2022-08-19T14:24:26;2.60;;;2.50;;
31746;SDS011;18319;48.974;8.462;2022-08-19T14:26:53;8.30;;;3.35;;
31746;SDS011;18319;48.974;8.462;2022-08-19T14:29:21;2.90;;;2.70;;
31746;SDS011;18319;48.974;8.462;2022-08-19T14:31:48;2.78;;;2.53;;
31746;SDS011;18319;48.974;8.462;2022-08-19T14:34:15;2.80;;;2.70;;
31746;SDS011;18319;48.974;8.462;2022-08-19T14:36:42;2.90;;;2.63;;
31746;SDS011;18319;48.974;8.462;2022-08-19T14:39:10;3.53;;;3.05;;
31746;SDS011;18319;48.974;8.462;2022-08-19T14:41:39;3.05;;;2.95;;
31746;SDS011;18319;48.974;8.462;2022-08-19T14:44:10;3.33;;;3.13;;
31746;SDS011;18319;48.974;8.462;2022-08-19T14:46:39;3.28;;;3.08;;